Terminal Aerodrome Forecast
Issued by NWS

Home | Current Version | Previous Version | Text Only | Print | Product List | Glossary On
Versions: 1 2 3 4 5 6 7 8 9 10 11 12 13 14 15 16 17 18 19 20 21 22 23 24 25
000
FTPA31 PHFO 240500
TAFMDY
TAF
PMDY 240540Z 2406/2506 07010KT P6SM BKN050
     FM241200 11012KT P6SM BKN050
     FM241500 14015G20KT P6SM BKN050
     FM250000 15018G25KT P6SM VCSH SCT030 BKN050
      AMD LTD TO CLD AND WIND=

USA.gov is the U.S. government's official web portal to all federal, state and local government web resources and services.